createdAt,value
2019-02-16T00:00:55.454Z,0.70
2019-02-16T00:03:27.215Z,0.81
2019-02-16T00:05:58.866Z,0.80
2019-02-16T00:08:30.540Z,0.76
2019-02-16T00:11:02.490Z,0.75
2019-02-16T00:13:34.257Z,0.79
2019-02-16T00:16:05.920Z,0.71
2019-02-16T00:18:37.529Z,0.45
2019-02-16T00:21:09.128Z,0.34
2019-02-16T00:23:40.804Z,0.29
2019-02-16T00:26:12.393Z,0.23
2019-02-16T00:28:44.003Z,0.40
2019-02-16T00:31:15.607Z,0.21
2019-02-16T00:33:47.221Z,0.20
2019-02-16T00:36:19.493Z,0.19
2019-02-16T00:38:51.521Z,0.16
2019-02-16T00:41:23.185Z,0.32
2019-02-16T00:43:54.831Z,0.34
2019-02-16T00:46:26.418Z,0.34
2019-02-16T00:48:58.092Z,0.36
2019-02-16T00:51:29.752Z,0.44
2019-02-16T00:54:01.679Z,0.48
2019-02-16T00:56:33.697Z,0.36
2019-02-16T00:59:05.660Z,0.39
2019-02-16T01:01:37.269Z,0.25
2019-02-16T01:04:08.891Z,0.13
2019-02-16T01:06:40.557Z,0.15
2019-02-16T01:09:12.179Z,0.07
2019-02-16T01:11:43.852Z,0.11
2019-02-16T01:14:15.466Z,-0.06
2019-02-16T01:16:47.070Z,-0.13
2019-02-16T01:19:18.771Z,-0.17
2019-02-16T01:21:50.461Z,-0.11
2019-02-16T01:24:22.067Z,-0.07
2019-02-16T01:26:53.657Z,0.06
2019-02-16T01:29:25.279Z,0.16
2019-02-16T01:31:56.945Z,0.13
2019-02-16T01:34:28.530Z,0.11
2019-02-16T01:37:00.268Z,0.13
2019-02-16T01:39:31.884Z,0.25
2019-02-16T01:42:03.713Z,0.14
2019-02-16T01:44:35.696Z,0.07
2019-02-16T01:47:07.294Z,-0.02
2019-02-16T01:49:38.978Z,0.06
2019-02-16T01:52:10.754Z,0.10
2019-02-16T01:54:42.437Z,0.11
2019-02-16T01:57:14.109Z,0.07
2019-02-16T01:59:45.877Z,0.15
2019-02-16T02:02:17.547Z,0.09
2019-02-16T02:04:49.158Z,0.17
2019-02-16T02:07:20.815Z,0.09
2019-02-16T02:09:52.494Z,0.12
2019-02-16T02:12:25.177Z,0.09
2019-02-16T02:14:56.853Z,0.01
2019-02-16T02:17:28.509Z,0.00
2019-02-16T02:20:00.358Z,-0.04
2019-02-16T02:22:32.072Z,-0.18
2019-02-16T02:25:03.774Z,-0.12
2019-02-16T02:27:35.692Z,0.06
2019-02-16T02:30:08.194Z,0.00
2019-02-16T02:32:39.873Z,-0.11
2019-02-16T02:35:11.507Z,-0.06
2019-02-16T02:37:43.242Z,-0.03
2019-02-16T02:40:14.838Z,-0.04
2019-02-16T02:42:46.445Z,0.04
2019-02-16T02:45:18.065Z,-0.06
2019-02-16T02:47:49.677Z,-0.07
2019-02-16T02:50:21.351Z,0.07
2019-02-16T02:52:52.971Z,0.19
2019-02-16T02:55:24.645Z,0.15
2019-02-16T02:57:56.252Z,-0.05
2019-02-16T03:00:28.779Z,-0.02
2019-02-16T03:03:00.452Z,-0.09
2019-02-16T03:05:32.339Z,0.09
2019-02-16T03:08:04.007Z,0.02
2019-02-16T03:10:35.803Z,-0.02
2019-02-16T03:13:07.483Z,-0.14
2019-02-16T03:15:39.188Z,-0.22
2019-02-16T03:18:10.866Z,-0.34
2019-02-16T03:20:42.527Z,-0.19
2019-02-16T03:23:23.378Z,-0.21
2019-02-16T03:26:10.414Z,-0.22
2019-02-16T03:29:04.011Z,-0.17
2019-02-16T03:32:12.572Z,-0.10
2019-02-16T03:35:27.966Z,-0.30
2019-02-16T03:38:41.723Z,-0.36
2019-02-16T03:41:15.713Z,-0.31
2019-02-16T03:43:47.394Z,-0.34
2019-02-16T03:46:19.001Z,-0.16
2019-02-16T03:48:50.611Z,-0.19
2019-02-16T03:51:22.226Z,-0.25
2019-02-16T03:53:53.810Z,-0.23
2019-02-16T03:56:25.489Z,-0.23
2019-02-16T03:58:57.093Z,-0.28
2019-02-16T04:01:28.653Z,-0.34
2019-02-16T04:04:00.257Z,-0.29
2019-02-16T04:06:31.909Z,-0.39
2019-02-16T04:09:05.469Z,-0.42
2019-02-16T04:11:37.197Z,-0.33
2019-02-16T04:14:08.777Z,-0.22
2019-02-16T04:16:40.372Z,-0.21
2019-02-16T04:19:11.977Z,-0.18
2019-02-16T04:21:43.582Z,-0.12
2019-02-16T04:24:15.286Z,-0.06
2019-02-16T04:26:46.894Z,-0.06
2019-02-16T04:29:18.508Z,0.03
2019-02-16T04:31:50.185Z,0.10
2019-02-16T04:34:21.791Z,0.11
2019-02-16T04:36:53.390Z,0.13
2019-02-16T04:39:25.084Z,-0.02
2019-02-16T04:41:56.660Z,-0.17
2019-02-16T04:44:28.271Z,-0.08
2019-02-16T04:46:59.873Z,-0.02
2019-02-16T04:49:31.881Z,0.03
2019-02-16T04:52:03.750Z,0.04
2019-02-16T04:54:35.675Z,0.12
2019-02-16T04:57:07.279Z,0.19
2019-02-16T04:59:38.871Z,0.10
2019-02-16T05:02:10.599Z,0.05
2019-02-16T05:04:42.290Z,0.03
2019-02-16T05:07:13.899Z,-0.06
2019-02-16T05:09:45.494Z,0.03
2019-02-16T05:12:17.273Z,0.05
2019-02-16T05:14:48.894Z,0.07
2019-02-16T05:17:20.558Z,0.05
2019-02-16T05:19:53.109Z,0.09
2019-02-16T05:22:24.719Z,0.02
2019-02-16T05:24:56.401Z,-0.01
2019-02-16T05:27:27.992Z,-0.05
2019-02-16T05:29:59.617Z,-0.18
2019-02-16T05:32:31.432Z,-0.22
2019-02-16T05:35:03.044Z,-0.27
2019-02-16T05:37:34.822Z,-0.24
2019-02-16T05:40:07.540Z,-0.32
2019-02-16T05:42:39.156Z,-0.31
2019-02-16T05:45:10.996Z,-0.34
2019-02-16T05:47:42.683Z,-0.31
2019-02-16T05:50:14.295Z,-0.32
2019-02-16T05:52:54.232Z,-0.31
2019-02-16T05:55:19.279Z,-0.27
2019-02-16T05:57:51.011Z,-0.25
2019-02-16T06:00:25.795Z,-0.23
2019-02-16T06:02:57.336Z,-0.28
2019-02-16T06:05:29.062Z,-0.33
2019-02-16T06:08:00.666Z,-0.33
2019-02-16T06:10:32.609Z,-0.31
2019-02-16T06:13:04.231Z,-0.34
2019-02-16T06:15:35.943Z,-0.34
2019-02-16T06:18:07.557Z,-0.30
2019-02-16T06:20:39.175Z,-0.32
2019-02-16T06:23:10.894Z,-0.33
2019-02-16T06:25:42.589Z,-0.36
2019-02-16T06:28:14.218Z,-0.41
2019-02-16T06:30:45.872Z,-0.42
2019-02-16T06:33:17.569Z,-0.47
2019-02-16T06:35:51.964Z,-0.47
2019-02-16T06:38:23.575Z,-0.42
2019-02-16T06:40:55.225Z,-0.39
2019-02-16T06:43:26.840Z,-0.32
2019-02-16T06:45:58.463Z,-0.27
2019-02-16T06:48:30.120Z,-0.31
2019-02-16T06:51:01.972Z,-0.27
2019-02-16T06:53:33.805Z,-0.26
2019-02-16T06:56:24.603Z,-0.28
2019-02-16T06:58:56.273Z,-0.31
2019-02-16T07:01:27.871Z,-0.33
2019-02-16T07:04:00.620Z,-0.28
2019-02-16T07:06:32.586Z,-0.24
2019-02-16T07:09:05.705Z,-0.32
2019-02-16T07:11:37.391Z,-0.34
2019-02-16T07:14:09.028Z,-0.28
2019-02-16T07:16:49.496Z,-0.23
2019-02-16T07:19:40.075Z,-0.19
2019-02-16T07:22:11.704Z,-0.08
2019-02-16T07:24:43.361Z,-0.01
2019-02-16T07:27:14.976Z,0.04
2019-02-16T07:29:46.659Z,-0.02
2019-02-16T07:32:18.365Z,0.01
2019-02-16T07:34:49.955Z,0.04
2019-02-16T07:37:21.570Z,0.04
2019-02-16T07:39:53.173Z,0.22
2019-02-16T07:42:25.138Z,0.33
2019-02-16T07:45:15.649Z,0.37
2019-02-16T07:47:52.589Z,0.42
2019-02-16T07:50:46.092Z,0.49
2019-02-16T07:53:48.529Z,0.61
2019-02-16T07:56:30.167Z,0.71
2019-02-16T07:59:20.602Z,0.95
2019-02-16T08:02:23.115Z,1.05
2019-02-16T08:05:15.589Z,1.18
2019-02-16T08:07:59.814Z,1.38
2019-02-16T08:10:53.181Z,1.53
2019-02-16T08:13:45.276Z,1.64
2019-02-16T08:16:41.882Z,1.84
2019-02-16T08:19:27.845Z,1.94
2019-02-16T08:22:07.664Z,2.13
2019-02-16T08:25:04.634Z,2.29
2019-02-16T08:27:56.363Z,2.39
2019-02-16T08:30:42.262Z,2.53
2019-02-16T08:33:34.245Z,2.65
2019-02-16T08:36:23.388Z,2.79
2019-02-16T08:39:12.438Z,2.97
2019-02-16T08:42:01.594Z,3.08
2019-02-16T08:44:50.730Z,3.17
2019-02-16T08:47:37.182Z,3.20
2019-02-16T08:50:30.534Z,3.28
2019-02-16T08:53:16.866Z,3.47
2019-02-16T08:56:22.521Z,3.64
2019-02-16T08:59:11.726Z,3.82
2019-02-16T09:02:00.566Z,3.88
2019-02-16T09:04:49.854Z,4.17
2019-02-16T09:07:40.384Z,4.40
2019-02-16T09:10:29.380Z,4.74
2019-02-16T09:13:13.331Z,4.93
2019-02-16T09:16:07.590Z,5.15
2019-02-16T09:18:48.847Z,5.31
2019-02-16T09:21:51.299Z,5.49
2019-02-16T09:24:57.076Z,5.68
2019-02-16T09:27:38.707Z,5.84
2019-02-16T09:30:24.579Z,5.88
2019-02-16T09:33:12.478Z,6.12
2019-02-16T09:36:04.473Z,6.35
2019-02-16T09:38:53.470Z,6.53
2019-02-16T09:41:42.746Z,6.78
2019-02-16T09:44:23.347Z,7.03
2019-02-16T09:47:32.135Z,7.24
2019-02-16T09:50:12.723Z,7.36
2019-02-16T09:53:03.306Z,7.69
2019-02-16T09:55:52.480Z,8.11
2019-02-16T09:58:41.504Z,8.29
2019-02-16T10:01:50.390Z,8.58
2019-02-16T10:04:37.381Z,8.90
2019-02-16T10:07:26.575Z,9.19
2019-02-16T10:10:22.930Z,9.49
2019-02-16T10:13:08.987Z,9.76
2019-02-16T10:16:02.656Z,9.95
2019-02-16T10:18:53.229Z,10.18
2019-02-16T10:21:46.571Z,10.52
2019-02-16T10:24:27.737Z,10.77
2019-02-16T10:27:33.162Z,10.95
2019-02-16T10:30:22.183Z,11.15
2019-02-16T10:33:12.789Z,11.24
2019-02-16T10:35:52.762Z,11.49
2019-02-16T10:38:43.370Z,11.66
2019-02-16T10:41:32.627Z,11.63
2019-02-16T10:44:38.016Z,11.71
2019-02-16T10:47:31.303Z,11.85
2019-02-16T10:50:14.400Z,12.11
2019-02-16T10:53:04.919Z,12.01
2019-02-16T10:55:50.046Z,12.20
2019-02-16T10:58:46.560Z,12.19
2019-02-16T11:01:35.700Z,12.18
2019-02-16T11:04:38.138Z,12.26
2019-02-16T11:07:10.431Z,12.34
2019-02-16T11:09:47.344Z,12.25
2019-02-16T11:12:40.759Z,12.23
2019-02-16T11:15:47.916Z,12.26
2019-02-16T11:18:30.640Z,12.34
2019-02-16T11:21:21.171Z,12.48
2019-02-16T11:24:11.774Z,12.48
2019-02-16T11:27:05.489Z,12.55
2019-02-16T11:29:46.633Z,12.60
2019-02-16T11:32:42.634Z,12.60
2019-02-16T11:35:40.421Z,12.69
2019-02-16T11:38:36.808Z,12.74
2019-02-16T11:41:19.450Z,12.69
2019-02-16T11:44:04.895Z,12.77
2019-02-16T11:46:58.692Z,12.78
2019-02-16T11:49:52.274Z,12.85
2019-02-16T11:52:51.741Z,12.87
2019-02-16T11:55:44.362Z,12.97
2019-02-16T11:58:34.774Z,13.07
2019-02-16T12:01:16.864Z,13.00
2019-02-16T12:04:19.488Z,13.04
2019-02-16T12:07:09.131Z,13.18
2019-02-16T12:10:14.130Z,13.16
2019-02-16T12:13:08.107Z,13.21
2019-02-16T12:16:00.043Z,13.26
2019-02-16T12:18:56.614Z,13.36
2019-02-16T12:21:44.110Z,13.40
2019-02-16T12:25:02.955Z,13.45
2019-02-16T12:27:40.704Z,13.49
2019-02-16T12:30:34.074Z,13.50
2019-02-16T12:33:31.287Z,13.62
2019-02-16T12:36:32.268Z,13.71
2019-02-16T12:39:35.267Z,13.80
2019-02-16T12:42:29.233Z,13.85
2019-02-16T12:45:21.385Z,13.89
2019-02-16T12:48:19.959Z,13.90
2019-02-16T12:51:07.558Z,13.97
2019-02-16T12:54:09.883Z,14.02
2019-02-16T12:57:03.219Z,14.03
2019-02-16T12:59:59.933Z,14.04
2019-02-16T13:02:50.446Z,14.00
2019-02-16T13:05:49.988Z,14.03
2019-02-16T13:08:39.507Z,14.03
2019-02-16T13:11:23.172Z,14.02
2019-02-16T13:14:11.566Z,14.05
2019-02-16T13:17:07.072Z,14.10
2019-02-16T13:19:46.923Z,14.13
2019-02-16T13:22:40.426Z,14.10
2019-02-16T13:25:36.779Z,14.09
2019-02-16T13:28:23.079Z,14.04
2019-02-16T13:31:19.632Z,14.07
2019-02-16T13:34:10.139Z,14.12
2019-02-16T13:36:53.243Z,14.15
2019-02-16T13:39:34.962Z,14.15
2019-02-16T13:42:28.451Z,14.19
2019-02-16T13:45:30.833Z,14.14
2019-02-16T13:48:24.123Z,14.19
2019-02-16T13:51:10.031Z,14.19
2019-02-16T13:54:06.708Z,14.22
2019-02-16T13:57:03.582Z,14.27
2019-02-16T13:59:52.714Z,14.26
2019-02-16T14:02:44.570Z,14.29
2019-02-16T14:05:27.118Z,14.27
2019-02-16T14:08:23.493Z,14.29
2019-02-16T14:10:59.751Z,14.28
2019-02-16T14:13:53.068Z,14.27
2019-02-16T14:16:32.812Z,14.31
2019-02-16T14:19:04.419Z,14.37
2019-02-16T14:21:36.113Z,14.35
2019-02-16T14:24:07.803Z,14.32
2019-02-16T14:26:39.402Z,14.38
2019-02-16T14:29:11.093Z,14.41
2019-02-16T14:31:42.703Z,14.40
2019-02-16T14:34:14.379Z,14.39
2019-02-16T14:36:47.431Z,14.33
2019-02-16T14:39:29.377Z,14.40
2019-02-16T14:42:01.056Z,14.36
2019-02-16T14:44:33.172Z,14.42
2019-02-16T14:47:04.956Z,14.39
2019-02-16T14:49:36.803Z,14.45
2019-02-16T14:52:10.247Z,14.44
2019-02-16T14:54:42.574Z,14.39
2019-02-16T14:57:14.550Z,14.41
2019-02-16T14:59:46.509Z,14.39
2019-02-16T15:02:18.400Z,14.41
2019-02-16T15:04:50.394Z,14.42
2019-02-16T15:07:22.475Z,14.45
2019-02-16T15:09:54.470Z,14.45
2019-02-16T15:12:26.558Z,14.39
2019-02-16T15:14:58.628Z,14.40
2019-02-16T15:17:31.680Z,14.31
2019-02-16T15:20:04.321Z,14.30
2019-02-16T15:22:36.529Z,14.31
2019-02-16T15:25:10.764Z,14.25
2019-02-16T15:27:43.044Z,14.19
2019-02-16T15:30:16.368Z,14.13
2019-02-16T15:32:48.061Z,14.08
2019-02-16T15:35:20.634Z,14.04
2019-02-16T15:37:53.484Z,14.05
2019-02-16T15:40:25.569Z,13.89
2019-02-16T15:42:57.775Z,13.78
2019-02-16T15:45:29.660Z,13.72
2019-02-16T15:48:01.331Z,13.73
2019-02-16T15:50:33.092Z,13.66
2019-02-16T15:53:04.811Z,13.55
2019-02-16T15:55:36.543Z,13.41
2019-02-16T15:58:08.236Z,13.26
2019-02-16T16:00:40.031Z,13.12
2019-02-16T16:03:11.649Z,13.06
2019-02-16T16:05:43.503Z,12.94
2019-02-16T16:08:33.129Z,12.87
2019-02-16T16:11:23.729Z,12.73
2019-02-16T16:14:23.762Z,12.60
2019-02-16T16:17:30.860Z,12.46
2019-02-16T16:20:09.443Z,12.17
2019-02-16T16:22:50.331Z,11.89
2019-02-16T16:25:33.932Z,11.84
2019-02-16T16:28:30.799Z,11.72
2019-02-16T16:31:20.194Z,11.60
2019-02-16T16:34:08.659Z,11.37
2019-02-16T16:37:14.140Z,11.25
2019-02-16T16:40:04.741Z,11.00
2019-02-16T16:42:55.320Z,10.67
2019-02-16T16:45:52.705Z,10.55
2019-02-16T16:48:30.305Z,10.50
2019-02-16T16:51:36.277Z,10.35
2019-02-16T16:54:25.370Z,10.21
2019-02-16T16:57:02.962Z,10.04
2019-02-16T16:59:55.557Z,9.97
2019-02-16T17:03:01.071Z,9.95
2019-02-16T17:05:57.416Z,9.82
2019-02-16T17:08:46.401Z,9.39
2019-02-16T17:11:35.746Z,9.19
2019-02-16T17:14:24.716Z,9.08
2019-02-16T17:17:09.243Z,9.04
2019-02-16T17:20:11.749Z,9.05
2019-02-16T17:23:02.329Z,8.87
2019-02-16T17:25:52.991Z,8.81
2019-02-16T17:28:49.609Z,8.90
2019-02-16T17:31:43.201Z,8.74
2019-02-16T17:34:33.849Z,8.56
2019-02-16T17:37:12.334Z,8.62
2019-02-16T17:39:55.220Z,8.47
2019-02-16T17:42:54.847Z,8.41
2019-02-16T17:45:54.305Z,8.29
2019-02-16T17:48:45.984Z,8.14
2019-02-16T17:51:26.697Z,8.16
2019-02-16T17:54:15.839Z,8.14
2019-02-16T17:57:15.126Z,8.02
2019-02-16T18:00:07.528Z,7.99
2019-02-16T18:03:04.573Z,8.00
2019-02-16T18:05:55.220Z,8.03
2019-02-16T18:08:42.691Z,7.84
2019-02-16T18:11:31.664Z,7.73
2019-02-16T18:14:20.545Z,7.57
2019-02-16T18:17:20.128Z,7.43
2019-02-16T18:20:10.730Z,7.43
2019-02-16T18:23:06.116Z,7.36
2019-02-16T18:25:54.713Z,7.34
2019-02-16T18:28:56.739Z,7.32
2019-02-16T18:31:49.446Z,7.22
2019-02-16T18:34:39.572Z,7.23
2019-02-16T18:37:38.958Z,7.08
2019-02-16T18:40:27.934Z,6.96
2019-02-16T18:43:23.715Z,6.85
2019-02-16T18:46:20.436Z,6.67
2019-02-16T18:49:09.385Z,6.60
2019-02-16T18:51:58.374Z,6.55
2019-02-16T18:54:36.304Z,6.68
2019-02-16T18:57:29.747Z,6.64
2019-02-16T19:00:23.126Z,6.63
2019-02-16T19:03:18.513Z,6.67
2019-02-16T19:06:09.118Z,6.75
2019-02-16T19:09:06.947Z,6.70
2019-02-16T19:11:58.032Z,6.74
2019-02-16T19:15:14.592Z,6.73
2019-02-16T19:17:53.231Z,6.73
2019-02-16T19:20:43.767Z,6.66
2019-02-16T19:23:27.682Z,6.62
2019-02-16T19:26:19.208Z,6.60
2019-02-16T19:29:08.152Z,6.55
2019-02-16T19:31:45.694Z,6.28
2019-02-16T19:34:42.111Z,6.23
2019-02-16T19:37:19.634Z,6.25
2019-02-16T19:40:13.788Z,6.25
2019-02-16T19:43:03.256Z,6.21
2019-02-16T19:45:43.218Z,6.21
2019-02-16T19:48:23.850Z,6.04
2019-02-16T19:51:20.385Z,5.95
2019-02-16T19:54:14.087Z,5.88
2019-02-16T19:57:26.931Z,5.72
2019-02-16T20:00:13.900Z,5.85
2019-02-16T20:03:07.379Z,5.93
2019-02-16T20:06:06.887Z,5.95
2019-02-16T20:09:00.230Z,6.02
2019-02-16T20:11:54.481Z,5.95
2019-02-16T20:14:45.206Z,6.07
2019-02-16T20:17:30.616Z,6.15
2019-02-16T20:20:20.016Z,6.20
2019-02-16T20:23:11.425Z,6.11
2019-02-16T20:26:11.074Z,6.07
2019-02-16T20:28:49.273Z,5.98
2019-02-16T20:31:30.885Z,5.87
2019-02-16T20:34:15.822Z,5.83
2019-02-16T20:36:55.738Z,5.80
2019-02-16T20:40:01.512Z,5.76
2019-02-16T20:43:02.486Z,5.59
2019-02-16T20:45:53.685Z,5.40
2019-02-16T20:48:43.285Z,5.42
2019-02-16T20:51:32.896Z,5.37
2019-02-16T20:54:32.809Z,5.42
2019-02-16T20:57:22.688Z,5.44
2019-02-16T21:00:16.432Z,5.28
2019-02-16T21:02:55.108Z,5.31
2019-02-16T21:05:45.661Z,5.25
2019-02-16T21:08:39.201Z,5.18
2019-02-16T21:11:34.963Z,5.24
2019-02-16T21:14:37.940Z,5.34
2019-02-16T21:17:40.749Z,5.36
2019-02-16T21:20:46.223Z,5.35
2019-02-16T21:23:33.247Z,5.38
2019-02-16T21:26:39.791Z,5.36
2019-02-16T21:29:23.035Z,5.29
2019-02-16T21:32:09.970Z,5.20
2019-02-16T21:35:00.651Z,5.33
2019-02-16T21:37:57.175Z,5.30
2019-02-16T21:40:47.789Z,5.26
2019-02-16T21:43:47.417Z,5.24
2019-02-16T21:46:47.120Z,5.18
2019-02-16T21:49:42.300Z,5.14
2019-02-16T21:52:43.659Z,5.04
2019-02-16T21:55:32.431Z,5.04
2019-02-16T21:58:21.450Z,5.01
2019-02-16T22:01:10.617Z,4.98
2019-02-16T22:04:16.384Z,4.83
2019-02-16T22:07:18.210Z,4.82
2019-02-16T22:10:23.962Z,4.78
2019-02-16T22:13:12.397Z,4.86
2019-02-16T22:15:44.101Z,4.79
2019-02-16T22:18:15.804Z,4.70
2019-02-16T22:20:48.028Z,4.67
2019-02-16T22:23:20.468Z,4.65
2019-02-16T22:25:52.928Z,4.63
2019-02-16T22:28:30.805Z,4.59
2019-02-16T22:30:58.320Z,4.46
2019-02-16T22:33:29.946Z,4.45
2019-02-16T22:36:01.556Z,4.43
2019-02-16T22:38:34.027Z,4.35
2019-02-16T22:41:05.948Z,4.23
2019-02-16T22:43:38.176Z,4.30
2019-02-16T22:46:10.038Z,4.17
2019-02-16T22:48:41.758Z,4.10
2019-02-16T22:51:13.660Z,4.15
2019-02-16T22:53:45.367Z,4.19
2019-02-16T22:56:17.360Z,4.23
2019-02-16T22:58:49.316Z,4.20
2019-02-16T23:01:21.015Z,4.23
2019-02-16T23:03:52.908Z,4.28
2019-02-16T23:06:25.000Z,4.22
2019-02-16T23:08:56.748Z,4.15
2019-02-16T23:11:28.460Z,4.07
2019-02-16T23:14:00.192Z,4.07
2019-02-16T23:16:32.321Z,4.06
2019-02-16T23:19:04.124Z,3.97
2019-02-16T23:21:36.141Z,3.94
2019-02-16T23:24:08.274Z,3.91
2019-02-16T23:26:40.197Z,3.75
2019-02-16T23:29:11.872Z,3.76
2019-02-16T23:31:43.580Z,3.77
2019-02-16T23:34:15.417Z,3.62
2019-02-16T23:36:47.849Z,3.68
2019-02-16T23:39:20.182Z,3.65
2019-02-16T23:41:51.914Z,3.70
2019-02-16T23:44:24.153Z,3.66
2019-02-16T23:46:55.777Z,3.58
2019-02-16T23:49:27.886Z,3.63
2019-02-16T23:52:00.137Z,3.62
2019-02-16T23:54:31.816Z,3.56
2019-02-16T23:57:03.801Z,3.46
2019-02-16T23:59:35.856Z,3.47
